Strona główna
METAR-TAF:

METAR-TAF

Lotnisko :

Oberpfaffenhofen, Niemcy

Szerokość geograficzna: 48-05N, Długość geograficzna: 011-17E, wysokość: 600 m

Aktualna obserwacja pogody

Raport powstał 37 minut temu, godzina 08:50 UTC
Wiatr 3 kt od zachodnio-południowy zachód
Temperatura 26°C
Wilgotność 58%
Ciśnienie 1017 hPa
Widzialność 10 km lub więcej
Brak chmur poniżej 1500 m i brak chmur cumulonimbus

METAR: EDMO 200850Z 24003KT CAVOK 26/17 Q1017

czas: 11:27 (09:27 UTC)

Prognoza

Raport powstał 16 godziny i 27 minut temu, godzina 17:00 UTC
Prognoza ważna od 19 godzina 18 UTC do 20 godzina 03 UTC
Wiatr 2 kt z kierunków zmiennych
Widzialność 10 km lub więcej
Brak chmur poniżej 1500 m i brak chmur cumulonimbus

TAF: EDMO 191700Z 1918/2003 VRB02KT CAVOK

Obserwacja i prognoza pogody dla ponad 4000 lotnisk (raport METAR i TAF).

Dostępne stacje oznaczono żółtymi i czerwonymi punktami na mapie.

Najedź kursorem aby zobaczyć nazwę stacji.

Kliknij aby zobaczyć obserwacje i prognozy pogody.

Aby zmienić mapę: kliknij na zielony przycisk z czarnym krzyżykiem, aby powiększyć; na zielony przycisk z myślnikiem, aby pomniejszyć; na zielone strzałki, aby przejść do map sąsiednich.


METAR-TAF: